createdAt,value
2023-02-19T00:02:07.477Z,99.90
2023-02-19T00:04:36.367Z,99.90
2023-02-19T00:07:05.121Z,99.90
2023-02-19T00:09:33.810Z,99.90
2023-02-19T00:12:02.695Z,99.90
2023-02-19T00:14:31.630Z,99.90
2023-02-19T00:17:01.810Z,99.90
2023-02-19T00:19:30.622Z,99.90
2023-02-19T00:21:59.401Z,99.90
2023-02-19T00:24:28.268Z,99.90
2023-02-19T00:26:56.974Z,99.90
2023-02-19T00:29:26.058Z,99.90
2023-02-19T00:31:54.905Z,99.90
2023-02-19T00:34:25.172Z,99.90
2023-02-19T00:36:53.901Z,99.90
2023-02-19T00:39:22.805Z,99.90
2023-02-19T00:41:52.053Z,99.90
2023-02-19T00:44:21.059Z,99.90
2023-02-19T00:46:49.999Z,99.90
2023-02-19T00:49:22.673Z,99.90
2023-02-19T00:51:54.585Z,99.90
2023-02-19T00:54:23.813Z,99.90
2023-02-19T00:56:53.023Z,99.90
2023-02-19T00:59:21.801Z,99.90
2023-02-19T01:01:50.806Z,99.90
2023-02-19T01:04:19.747Z,99.90
2023-02-19T01:06:49.251Z,99.90
2023-02-19T01:09:19.532Z,99.90
2023-02-19T01:11:48.469Z,99.90
2023-02-19T01:14:17.276Z,99.90
2023-02-19T01:16:46.149Z,99.90
2023-02-19T01:19:15.042Z,99.90
2023-02-19T01:21:44.300Z,99.90
2023-02-19T01:24:13.252Z,99.90
2023-02-19T01:26:43.671Z,99.90
2023-02-19T01:29:12.438Z,99.90
2023-02-19T01:31:42.966Z,99.90
2023-02-19T01:34:13.444Z,99.90
2023-02-19T01:36:42.368Z,99.90
2023-02-19T01:39:12.890Z,99.90
2023-02-19T01:41:44.094Z,99.90
2023-02-19T01:45:18.716Z,99.90
2023-02-19T01:47:47.895Z,99.90
2023-02-19T01:50:16.975Z,99.90
2023-02-19T01:52:45.820Z,99.90
2023-02-19T01:55:15.562Z,99.90
2023-02-19T01:57:49.476Z,99.90
2023-02-19T02:00:19.441Z,99.90
2023-02-19T02:02:56.080Z,99.90
2023-02-19T02:05:39.015Z,99.90
2023-02-19T02:08:25.284Z,99.90
2023-02-19T02:10:55.784Z,99.90
2023-02-19T02:13:26.077Z,99.90
2023-02-19T02:16:16.244Z,99.90
2023-02-19T02:19:07.169Z,99.90
2023-02-19T02:22:04.877Z,99.90
2023-02-19T02:25:27.457Z,99.90
2023-02-19T02:28:14.428Z,99.90
2023-02-19T02:30:48.303Z,99.90
2023-02-19T02:33:29.749Z,99.90
2023-02-19T02:36:06.631Z,99.90
2023-02-19T02:38:41.634Z,99.90
2023-02-19T02:41:11.398Z,99.90
2023-02-19T02:43:40.321Z,99.90
2023-02-19T02:46:13.426Z,99.90
2023-02-19T02:48:47.739Z,99.90
2023-02-19T02:51:24.072Z,99.90
2023-02-19T02:54:16.872Z,99.90
2023-02-19T02:56:49.439Z,99.90
2023-02-19T02:59:23.088Z,99.90
2023-02-19T03:02:12.400Z,99.90
2023-02-19T03:05:09.485Z,99.90
2023-02-19T03:07:46.638Z,99.90
2023-02-19T03:10:19.974Z,99.90
2023-02-19T03:13:11.503Z,99.90
2023-02-19T03:16:17.565Z,99.90
2023-02-19T03:19:12.254Z,99.90
2023-02-19T03:21:44.910Z,99.90
2023-02-19T03:24:34.834Z,99.90
2023-02-19T03:27:05.978Z,99.90
2023-02-19T03:29:40.059Z,99.90
2023-02-19T03:32:16.368Z,99.90
2023-02-19T03:34:53.434Z,99.90
2023-02-19T03:37:30.852Z,99.90
2023-02-19T03:39:59.954Z,99.90
2023-02-19T03:42:41.528Z,99.90
2023-02-19T03:45:47.974Z,99.90
2023-02-19T03:48:34.527Z,99.90
2023-02-19T03:51:29.150Z,99.90
2023-02-19T03:54:14.329Z,99.90
2023-02-19T03:56:51.435Z,99.90
2023-02-19T03:59:32.487Z,99.90
2023-02-19T04:02:08.561Z,99.90
2023-02-19T04:04:44.892Z,99.90
2023-02-19T04:07:15.709Z,99.90
2023-02-19T04:09:49.652Z,99.90
2023-02-19T04:12:20.519Z,99.90
2023-02-19T04:14:57.876Z,99.90
2023-02-19T04:17:32.672Z,99.90
2023-02-19T04:20:07.266Z,99.90
2023-02-19T04:22:39.924Z,99.90
2023-02-19T04:25:10.169Z,99.90
2023-02-19T04:27:40.306Z,99.90
2023-02-19T04:30:13.438Z,99.90
2023-02-19T04:32:42.290Z,99.90
2023-02-19T04:35:11.112Z,99.90
2023-02-19T04:37:41.223Z,99.90
2023-02-19T04:40:11.757Z,99.90
2023-02-19T04:42:40.488Z,99.90
2023-02-19T04:45:10.263Z,99.90
2023-02-19T04:47:39.029Z,99.90
2023-02-19T04:50:09.126Z,99.90
2023-02-19T04:52:37.909Z,99.90
2023-02-19T04:55:09.954Z,99.90
2023-02-19T04:57:38.701Z,99.90
2023-02-19T05:00:10.695Z,99.90
2023-02-19T05:02:39.495Z,99.90
2023-02-19T05:05:08.972Z,99.90
2023-02-19T05:07:37.788Z,99.90
2023-02-19T05:10:08.878Z,99.90
2023-02-19T05:12:37.629Z,99.90
2023-02-19T05:15:06.848Z,99.90
2023-02-19T05:17:36.082Z,99.90
2023-02-19T05:20:05.142Z,99.90
2023-02-19T05:22:34.020Z,99.90
2023-02-19T05:25:03.067Z,99.90
2023-02-19T05:27:34.124Z,99.90
2023-02-19T05:30:03.015Z,99.90
2023-02-19T05:32:31.801Z,99.90
2023-02-19T05:35:00.620Z,99.90
2023-02-19T05:37:29.468Z,99.90
2023-02-19T05:39:58.263Z,99.90
2023-02-19T05:42:26.952Z,99.90
2023-02-19T05:44:57.122Z,99.90
2023-02-19T05:47:25.945Z,99.90
2023-02-19T05:49:54.617Z,99.90
2023-02-19T05:52:23.365Z,99.90
2023-02-19T05:54:52.069Z,99.90
2023-02-19T05:57:21.637Z,99.90
2023-02-19T05:59:50.419Z,99.90
2023-02-19T06:02:20.841Z,99.90
2023-02-19T06:04:49.725Z,99.90
2023-02-19T06:07:18.449Z,99.90
2023-02-19T06:09:47.170Z,99.90
2023-02-19T06:12:16.358Z,99.90
2023-02-19T06:14:45.256Z,99.90
2023-02-19T06:17:14.097Z,99.90
2023-02-19T06:19:44.494Z,99.90
2023-02-19T06:22:15.193Z,99.90
2023-02-19T06:24:44.122Z,99.90
2023-02-19T06:27:13.039Z,99.90
2023-02-19T06:29:41.863Z,99.90
2023-02-19T06:32:10.864Z,99.90
2023-02-19T06:34:39.821Z,99.90
2023-02-19T06:37:10.200Z,99.90
2023-02-19T06:39:39.814Z,99.90
2023-02-19T06:42:08.773Z,99.90
2023-02-19T06:44:37.627Z,99.90
2023-02-19T06:47:06.416Z,99.90
2023-02-19T06:49:35.266Z,99.90
2023-02-19T06:52:04.051Z,99.90
2023-02-19T06:54:34.714Z,99.90
2023-02-19T06:57:03.803Z,99.90
2023-02-19T06:59:32.504Z,99.90
2023-02-19T07:02:01.429Z,99.90
2023-02-19T07:04:30.269Z,99.90
2023-02-19T07:07:00.303Z,99.90
2023-02-19T07:09:29.159Z,99.90
2023-02-19T07:11:59.296Z,99.90
2023-02-19T07:14:28.036Z,99.90
2023-02-19T07:16:56.786Z,99.90
2023-02-19T07:19:25.641Z,99.90
2023-02-19T07:21:54.404Z,99.90
2023-02-19T07:24:23.223Z,99.90
2023-02-19T07:26:51.996Z,99.90
2023-02-19T07:29:22.232Z,99.90
2023-02-19T07:31:51.097Z,99.90
2023-02-19T07:34:19.907Z,99.90
2023-02-19T07:36:48.640Z,99.90
2023-02-19T07:39:17.479Z,99.90
2023-02-19T07:41:46.212Z,99.90
2023-02-19T07:44:16.866Z,99.90
2023-02-19T07:46:47.322Z,99.90
2023-02-19T07:49:16.231Z,99.90
2023-02-19T07:51:45.215Z,99.90
2023-02-19T07:54:14.248Z,99.90
2023-02-19T07:56:43.211Z,99.90
2023-02-19T07:59:12.077Z,99.90
2023-02-19T08:01:58.436Z,99.90
2023-02-19T08:04:28.759Z,99.90
2023-02-19T08:06:57.526Z,99.90
2023-02-19T08:09:26.272Z,99.90
2023-02-19T08:12:14.017Z,99.90
2023-02-19T08:14:42.815Z,99.90
2023-02-19T08:17:11.718Z,99.90
2023-02-19T08:19:42.593Z,99.90
2023-02-19T08:22:11.650Z,99.90
2023-02-19T08:24:43.036Z,99.90
2023-02-19T08:27:12.228Z,99.90
2023-02-19T08:29:41.270Z,99.90
2023-02-19T08:32:10.272Z,99.90
2023-02-19T08:34:39.589Z,99.90
2023-02-19T08:37:10.117Z,99.90
2023-02-19T08:39:38.983Z,99.90
2023-02-19T08:42:08.394Z,99.90
2023-02-19T08:44:37.225Z,99.90
2023-02-19T08:47:06.332Z,99.90
2023-02-19T08:49:35.374Z,99.90
2023-02-19T08:52:04.526Z,99.90
2023-02-19T08:54:37.358Z,99.90
2023-02-19T08:57:06.511Z,99.90
2023-02-19T08:59:35.337Z,99.90
2023-02-19T09:02:04.260Z,99.90
2023-02-19T09:04:33.271Z,99.90
2023-02-19T09:07:02.175Z,99.90
2023-02-19T09:09:30.932Z,99.90
2023-02-19T09:12:01.925Z,99.90
2023-02-19T09:14:34.577Z,99.90
2023-02-19T09:17:04.617Z,99.90
2023-02-19T09:19:33.897Z,99.90
2023-02-19T09:22:03.038Z,99.90
2023-02-19T09:24:32.590Z,99.90
2023-02-19T09:27:03.328Z,99.90
2023-02-19T09:29:34.521Z,99.90
2023-02-19T09:32:03.819Z,99.90
2023-02-19T09:34:33.223Z,99.90
2023-02-19T09:37:02.188Z,99.90
2023-02-19T09:39:31.177Z,99.90
2023-02-19T09:42:05.549Z,99.90
2023-02-19T09:44:38.980Z,99.90
2023-02-19T09:47:18.266Z,99.90
2023-02-19T09:49:53.232Z,99.90
2023-02-19T09:52:31.934Z,99.90
2023-02-19T09:55:04.950Z,99.90
2023-02-19T09:57:37.614Z,99.90
2023-02-19T10:00:21.623Z,99.90
2023-02-19T10:02:55.036Z,99.90
2023-02-19T10:05:29.063Z,99.90
2023-02-19T10:07:59.234Z,99.90
2023-02-19T10:10:34.083Z,99.90
2023-02-19T10:13:20.376Z,99.90
2023-02-19T10:15:53.351Z,99.90
2023-02-19T10:18:26.074Z,99.90
2023-02-19T10:20:57.085Z,99.90
2023-02-19T10:23:28.175Z,99.90
2023-02-19T10:25:59.622Z,99.90
2023-02-19T10:28:34.178Z,99.90
2023-02-19T10:31:08.766Z,99.90
2023-02-19T10:33:55.029Z,99.90
2023-02-19T10:36:32.110Z,99.90
2023-02-19T10:39:03.026Z,99.50
2023-02-19T10:41:33.055Z,98.20
2023-02-19T10:44:15.533Z,98.00
2023-02-19T10:46:48.357Z,98.80
2023-02-19T10:49:28.179Z,99.40
2023-02-19T10:52:01.657Z,97.30
2023-02-19T10:54:35.513Z,96.00
2023-02-19T10:57:35.261Z,95.40
2023-02-19T11:00:26.787Z,96.10
2023-02-19T11:03:25.980Z,95.20
2023-02-19T11:06:02.911Z,94.10
2023-02-19T11:08:38.394Z,93.20
2023-02-19T11:11:07.791Z,90.90
2023-02-19T11:13:38.232Z,90.70
2023-02-19T11:16:08.932Z,91.30
2023-02-19T11:18:39.277Z,89.30
2023-02-19T11:21:23.827Z,88.40
2023-02-19T11:23:53.290Z,88.80
2023-02-19T11:26:28.059Z,90.00
2023-02-19T11:29:03.065Z,90.40
2023-02-19T11:31:36.094Z,91.60
2023-02-19T11:34:31.171Z,91.40
2023-02-19T11:37:15.609Z,90.10
2023-02-19T11:39:47.894Z,89.20
2023-02-19T11:42:52.226Z,87.60
2023-02-19T11:45:37.323Z,88.00
2023-02-19T11:48:44.680Z,86.10
2023-02-19T11:51:38.869Z,87.70
2023-02-19T11:54:23.123Z,87.70
2023-02-19T11:57:09.001Z,85.50
2023-02-19T11:59:49.650Z,85.30
2023-02-19T12:02:57.606Z,83.60
2023-02-19T12:05:58.230Z,82.00
2023-02-19T12:09:16.570Z,82.70
2023-02-19T12:12:09.955Z,81.40
2023-02-19T12:15:07.324Z,82.70
2023-02-19T12:18:05.743Z,83.00
2023-02-19T12:20:45.009Z,85.00
2023-02-19T12:23:50.099Z,87.70
2023-02-19T12:26:27.274Z,90.10
2023-02-19T12:29:28.002Z,88.80
2023-02-19T12:32:38.710Z,92.60
2023-02-19T12:35:36.994Z,92.50
2023-02-19T12:38:24.586Z,93.50
2023-02-19T12:41:16.926Z,94.00
2023-02-19T12:43:54.932Z,93.80
2023-02-19T12:46:34.077Z,95.60
2023-02-19T12:49:13.623Z,93.60
2023-02-19T12:51:49.036Z,93.90
2023-02-19T12:54:28.383Z,94.70
2023-02-19T12:57:03.954Z,95.30
2023-02-19T12:59:41.706Z,95.50
2023-02-19T13:02:20.348Z,95.90
2023-02-19T13:04:59.231Z,97.30
2023-02-19T13:07:36.842Z,99.20
2023-02-19T13:10:26.408Z,99.90
2023-02-19T13:12:58.505Z,99.90
2023-02-19T13:15:36.860Z,99.90
2023-02-19T13:18:18.161Z,99.90
2023-02-19T13:20:54.816Z,99.90
2023-02-19T13:23:47.954Z,99.90
2023-02-19T13:26:59.040Z,99.90
2023-02-19T13:30:00.455Z,99.90
2023-02-19T13:33:16.421Z,99.90
2023-02-19T13:36:13.652Z,99.90
2023-02-19T13:38:49.647Z,99.90
2023-02-19T13:41:30.460Z,99.90
2023-02-19T13:44:08.219Z,99.90
2023-02-19T13:46:42.205Z,99.90
2023-02-19T13:49:49.893Z,99.90
2023-02-19T13:52:40.919Z,99.90
2023-02-19T13:55:53.111Z,99.90
2023-02-19T13:58:53.618Z,99.90
2023-02-19T14:02:14.069Z,99.90
2023-02-19T14:04:52.091Z,99.90
2023-02-19T14:07:53.770Z,99.90
2023-02-19T14:11:02.514Z,99.90
2023-02-19T14:14:37.795Z,99.90
2023-02-19T14:17:28.549Z,99.90
2023-02-19T14:20:01.278Z,99.90
2023-02-19T14:23:16.648Z,99.90
2023-02-19T14:25:58.601Z,99.90
2023-02-19T14:28:42.890Z,99.90
2023-02-19T14:31:22.358Z,99.90
2023-02-19T14:33:56.338Z,99.90
2023-02-19T14:36:50.324Z,99.90
2023-02-19T14:39:24.413Z,99.90
2023-02-19T14:41:57.591Z,99.90
2023-02-19T14:44:30.944Z,99.90
2023-02-19T14:47:05.453Z,99.90
2023-02-19T14:49:44.516Z,99.90
2023-02-19T14:52:22.189Z,99.90
2023-02-19T14:54:57.239Z,99.90
2023-02-19T14:57:30.499Z,99.90
2023-02-19T15:00:01.728Z,99.90
2023-02-19T15:02:33.710Z,99.90
2023-02-19T15:05:16.836Z,99.90
2023-02-19T15:07:46.571Z,99.90
2023-02-19T15:10:18.923Z,99.90
2023-02-19T15:12:52.232Z,99.90
2023-02-19T15:15:25.520Z,99.90
2023-02-19T15:17:56.874Z,99.90
2023-02-19T15:20:30.821Z,99.90
2023-02-19T15:23:02.730Z,99.90
2023-02-19T15:25:35.733Z,99.90
2023-02-19T15:28:28.804Z,99.90
2023-02-19T15:31:15.083Z,99.90
2023-02-19T15:33:52.637Z,99.90
2023-02-19T15:36:31.198Z,99.90
2023-02-19T15:39:03.561Z,99.90
2023-02-19T15:41:36.211Z,99.90
2023-02-19T15:44:31.940Z,99.90
2023-02-19T15:47:07.601Z,99.90
2023-02-19T15:49:48.619Z,99.90
2023-02-19T15:52:34.186Z,99.90
2023-02-19T15:55:19.694Z,99.90
2023-02-19T15:57:58.694Z,99.90
2023-02-19T16:00:37.487Z,99.90
2023-02-19T16:03:09.777Z,99.90
2023-02-19T16:05:41.877Z,99.90
2023-02-19T16:08:21.542Z,99.90
2023-02-19T16:10:59.580Z,99.90
2023-02-19T16:13:31.018Z,99.90
2023-02-19T16:16:07.328Z,99.90
2023-02-19T16:18:36.727Z,99.90
2023-02-19T16:21:11.001Z,99.90
2023-02-19T16:23:48.309Z,99.90
2023-02-19T16:26:17.766Z,99.90
2023-02-19T16:28:52.353Z,99.90
2023-02-19T16:31:24.247Z,99.90
2023-02-19T16:33:53.195Z,99.90
2023-02-19T16:36:37.034Z,99.90
2023-02-19T16:39:32.698Z,99.90
2023-02-19T16:42:20.629Z,99.90
2023-02-19T16:44:50.020Z,99.90
2023-02-19T16:47:34.652Z,99.90
2023-02-19T16:50:11.935Z,99.90
2023-02-19T16:52:53.276Z,99.90
2023-02-19T16:55:24.089Z,99.90
2023-02-19T16:57:53.299Z,99.90
2023-02-19T17:00:24.943Z,99.90
2023-02-19T17:02:57.758Z,99.90
2023-02-19T17:05:32.458Z,99.90
2023-02-19T17:08:01.302Z,99.90
2023-02-19T17:10:31.495Z,99.90
2023-02-19T17:13:00.290Z,99.90
2023-02-19T17:15:29.121Z,99.90
2023-02-19T17:17:57.913Z,99.90
2023-02-19T17:20:32.816Z,99.90
2023-02-19T17:23:01.738Z,99.90
2023-02-19T17:25:31.953Z,99.90
2023-02-19T17:28:00.749Z,99.90
2023-02-19T17:30:33.164Z,99.90
2023-02-19T17:33:02.058Z,99.90
2023-02-19T17:35:31.005Z,99.90
2023-02-19T17:37:59.714Z,99.90
2023-02-19T17:40:34.037Z,99.90
2023-02-19T17:43:03.580Z,99.90
2023-02-19T17:45:32.475Z,99.90
2023-02-19T17:48:01.334Z,99.90
2023-02-19T17:50:32.514Z,99.90
2023-02-19T17:53:01.326Z,99.90
2023-02-19T17:55:31.491Z,99.90
2023-02-19T17:58:00.490Z,99.90
2023-02-19T18:00:32.330Z,99.90
2023-02-19T18:03:01.121Z,99.90
2023-02-19T18:05:30.160Z,99.90
2023-02-19T18:07:59.031Z,99.90
2023-02-19T18:10:27.803Z,99.90
2023-02-19T18:12:58.331Z,99.90
2023-02-19T18:15:28.110Z,99.90
2023-02-19T18:17:58.260Z,99.90
2023-02-19T18:20:31.295Z,99.90
2023-02-19T18:23:00.095Z,99.90
2023-02-19T18:25:28.946Z,99.90
2023-02-19T18:28:00.465Z,99.90
2023-02-19T18:30:30.000Z,99.90
2023-02-19T18:32:59.717Z,99.90
2023-02-19T18:35:28.562Z,99.90
2023-02-19T18:37:57.671Z,99.90
2023-02-19T18:40:27.050Z,99.90
2023-02-19T18:42:55.947Z,99.90
2023-02-19T18:45:27.615Z,99.90
2023-02-19T18:47:56.433Z,99.90
2023-02-19T18:50:25.229Z,99.90
2023-02-19T18:52:54.070Z,99.90
2023-02-19T18:55:22.802Z,99.90
2023-02-19T18:57:51.638Z,99.90
2023-02-19T19:00:25.646Z,99.90
2023-02-19T19:03:00.300Z,99.90
2023-02-19T19:05:29.337Z,99.90
2023-02-19T19:07:59.663Z,99.90
2023-02-19T19:10:28.926Z,99.90
2023-02-19T19:12:58.764Z,99.90
2023-02-19T19:15:27.910Z,99.90
2023-02-19T19:17:59.747Z,99.90
2023-02-19T19:20:28.690Z,99.90
2023-02-19T19:22:57.535Z,99.90
2023-02-19T19:25:26.390Z,99.90
2023-02-19T19:27:57.318Z,99.90
2023-02-19T19:30:26.166Z,99.90
2023-02-19T19:32:55.241Z,99.90
2023-02-19T19:35:25.668Z,99.90
2023-02-19T19:37:54.535Z,99.90
2023-02-19T19:40:23.425Z,99.90
2023-02-19T19:42:53.802Z,99.90
2023-02-19T19:45:22.773Z,99.90
2023-02-19T19:47:52.906Z,99.90
2023-02-19T19:50:22.159Z,99.90
2023-02-19T19:52:52.416Z,99.90
2023-02-19T19:55:22.403Z,99.90
2023-02-19T19:57:52.356Z,99.90
2023-02-19T20:00:23.660Z,99.90
2023-02-19T20:02:52.686Z,99.90
2023-02-19T20:05:21.473Z,99.90
2023-02-19T20:07:51.711Z,99.90
2023-02-19T20:10:21.003Z,99.90
2023-02-19T20:12:49.817Z,99.90
2023-02-19T20:15:23.147Z,99.90
2023-02-19T20:17:52.334Z,99.90
2023-02-19T20:20:22.773Z,99.90
2023-02-19T20:22:54.131Z,99.90
2023-02-19T20:25:24.481Z,99.90
2023-02-19T20:27:54.245Z,99.90
2023-02-19T20:30:25.787Z,99.90
2023-02-19T20:32:54.941Z,99.90
2023-02-19T20:35:26.561Z,99.90
2023-02-19T20:37:56.924Z,99.90
2023-02-19T20:40:27.838Z,99.90
2023-02-19T20:42:56.713Z,99.90
2023-02-19T20:45:25.629Z,99.90
2023-02-19T20:47:54.460Z,99.90
2023-02-19T20:50:23.573Z,99.90
2023-02-19T20:52:53.351Z,99.90
2023-02-19T20:55:24.981Z,99.90
2023-02-19T20:57:53.826Z,99.90
2023-02-19T21:00:24.012Z,99.90
2023-02-19T21:02:52.862Z,99.90
2023-02-19T21:05:22.436Z,99.90
2023-02-19T21:07:51.410Z,99.90
2023-02-19T21:10:20.704Z,99.90
2023-02-19T21:12:52.396Z,99.90
2023-02-19T21:15:21.432Z,99.90
2023-02-19T21:17:50.746Z,99.90
2023-02-19T21:20:20.129Z,99.90
2023-02-19T21:22:49.025Z,99.90
2023-02-19T21:25:20.732Z,99.90
2023-02-19T21:27:51.160Z,99.90
2023-02-19T21:30:20.483Z,99.90
2023-02-19T21:32:49.581Z,99.90
2023-02-19T21:35:18.418Z,99.90
2023-02-19T21:37:47.233Z,99.90
2023-02-19T21:40:16.625Z,99.90
2023-02-19T21:42:45.345Z,99.90
2023-02-19T21:45:15.742Z,99.90
2023-02-19T21:47:45.131Z,99.90
2023-02-19T21:50:14.812Z,99.90
2023-02-19T21:52:44.125Z,99.90
2023-02-19T21:55:13.086Z,99.90
2023-02-19T21:57:42.334Z,99.90
2023-02-19T22:00:12.827Z,99.90
2023-02-19T22:02:44.124Z,99.90
2023-02-19T22:05:13.425Z,99.90
2023-02-19T22:07:42.257Z,99.90
2023-02-19T22:10:12.029Z,99.90
2023-02-19T22:12:40.868Z,99.90
2023-02-19T22:15:10.273Z,99.90
2023-02-19T22:17:39.429Z,99.90
2023-02-19T22:20:10.548Z,99.90
2023-02-19T22:22:39.246Z,99.90
2023-02-19T22:25:08.757Z,99.90
2023-02-19T22:27:37.511Z,99.90
2023-02-19T22:30:08.000Z,99.90
2023-02-19T22:32:36.842Z,99.90
2023-02-19T22:35:05.693Z,99.90
2023-02-19T22:37:35.915Z,99.90
2023-02-19T22:40:04.772Z,99.90
2023-02-19T22:42:35.894Z,99.90
2023-02-19T22:45:05.097Z,99.90
2023-02-19T22:47:33.957Z,99.90
2023-02-19T22:50:02.771Z,99.90
2023-02-19T22:52:31.703Z,99.90
2023-02-19T22:55:02.643Z,99.90
2023-02-19T22:57:31.521Z,99.90
2023-02-19T23:00:00.390Z,99.90
2023-02-19T23:02:29.159Z,99.90
2023-02-19T23:04:57.887Z,99.90
2023-02-19T23:07:26.702Z,99.90
2023-02-19T23:09:55.746Z,99.90
2023-02-19T23:12:25.882Z,99.90
2023-02-19T23:14:54.742Z,99.90
2023-02-19T23:17:23.465Z,99.90
2023-02-19T23:19:52.225Z,99.90
2023-02-19T23:22:21.153Z,99.90
2023-02-19T23:24:49.919Z,99.90
2023-02-19T23:27:18.703Z,99.90
2023-02-19T23:29:48.950Z,99.90
2023-02-19T23:32:20.964Z,99.90
2023-02-19T23:34:49.993Z,99.90
2023-02-19T23:37:18.874Z,99.90
2023-02-19T23:39:47.620Z,99.90
2023-02-19T23:42:18.277Z,99.90
2023-02-19T23:44:49.975Z,99.90
2023-02-19T23:47:18.843Z,99.90
2023-02-19T23:49:47.626Z,99.90
2023-02-19T23:52:17.794Z,99.90
2023-02-19T23:54:46.581Z,99.90
2023-02-19T23:57:15.415Z,99.90
2023-02-19T23:59:44.877Z,99.90
